Time;durP1;ratioP1;P1;durP2;ratioP2;P2;SDS_P1;SDS_P2;PMS_P1;PMS_P2;Temp;Humidity;BMP_temperature;BMP_pressure;BME280_temperature;BME280_humidity;BME280_pressure;Samples;Min_cycle;Max_cycle;Signal;HPM_P1;HPM_P2
2021/08/05 00:00:52;;;;;;;;;7.67;7.33;;;;;20.07;58.17;100822.47;4957588;28;46200;-84
2021/08/05 00:03:18;;;;;;;;;6.00;6.00;;;;;20.10;58.19;100830.38;4930962;28;45322;-84
2021/08/05 00:05:43;;;;;;;;;7.00;7.00;;;;;20.08;58.20;100825.09;4925306;28;45201;-84
2021/08/05 00:08:09;;;;;;;;;5.67;4.67;;;;;20.03;58.53;100805.72;4942499;28;45565;-84
2021/08/05 00:10:34;;;;;;;;;8.00;6.67;;;;;20.03;58.22;100803.03;4942743;28;45605;-85
2021/08/05 00:13:00;;;;;;;;;8.33;7.67;;;;;20.03;58.16;100793.22;4928697;28;45449;-83
2021/08/05 00:15:25;;;;;;;;;9.67;9.67;;;;;19.99;58.41;100796.97;4942827;28;45425;-84
2021/08/05 00:17:51;;;;;;;;;8.67;8.67;;;;;20.04;58.28;100797.63;4943023;28;45415;-85
2021/08/05 00:20:19;;;;;;;;;11.67;10.33;;;;;20.01;58.26;100788.88;4941421;28;48197;-84
2021/08/05 00:22:44;;;;;;;;;7.00;7.00;;;;;20.06;58.19;100805.59;4925349;28;45903;-84
2021/08/05 00:25:10;;;;;;;;;10.75;9.50;;;;;19.98;58.39;100794.34;4918269;28;45240;-84
2021/08/05 00:27:35;;;;;;;;;10.00;8.33;;;;;20.07;58.30;100798.44;4925737;28;45483;-83
2021/08/05 00:30:01;;;;;;;;;7.33;7.33;;;;;20.03;57.99;100792.34;4942181;28;47214;-84
2021/08/05 00:32:26;;;;;;;;;8.33;7.67;;;;;20.02;58.19;100791.50;4943629;28;45291;-84
2021/08/05 00:34:52;;;;;;;;;9.00;9.00;;;;;19.98;58.41;100787.19;4943491;28;45144;-85
2021/08/05 00:37:17;;;;;;;;;8.50;8.50;;;;;19.94;58.54;100782.94;4942046;28;45483;-85
2021/08/05 00:39:43;;;;;;;;;9.75;8.00;;;;;19.91;58.20;100783.03;4926212;28;46603;-85
2021/08/05 00:42:08;;;;;;;;;9.67;9.33;;;;;19.93;58.60;100794.53;4925658;28;45271;-85
2021/08/05 00:44:36;;;;;;;;;8.33;8.00;;;;;19.83;58.80;100778.03;4944410;28;45593;-86
2021/08/05 00:47:02;;;;;;;;;10.00;8.33;;;;;19.88;59.01;100787.63;4945002;28;45434;-85
2021/08/05 00:49:28;;;;;;;;;6.67;6.67;;;;;19.89;59.04;100784.03;4946765;28;46341;-84
2021/08/05 00:51:54;;;;;;;;;10.75;8.50;;;;;19.87;58.82;100785.91;4929453;28;45359;-85
2021/08/05 00:54:19;;;;;;;;;7.33;6.67;;;;;19.80;59.01;100785.28;4946355;28;45309;-87
2021/08/05 00:56:45;;;;;;;;;9.00;9.00;;;;;19.82;59.41;100784.28;4946557;28;45589;-86
2021/08/05 00:59:10;;;;;;;;;8.75;7.00;;;;;19.77;59.76;100772.06;4930574;28;46889;-86
2021/08/05 01:01:53;;;;;;;;;7.67;7.00;;;;;19.73;59.60;100768.66;4966937;28;45240;-86
2021/08/05 01:04:19;;;;;;;;;9.00;9.00;;;;;19.69;59.30;100764.34;4966566;28;45282;-86
2021/08/05 01:07:05;;;;;;;;;8.33;8.00;;;;;19.69;59.42;100771.50;4966124;28;45457;-86
2021/08/05 01:09:55;;;;;;;;;6.67;6.67;;;;;19.73;59.72;100765.97;4948614;28;47349;-86
2021/08/05 01:12:47;;;;;;;;;7.33;6.00;;;;;19.74;59.90;100773.06;4952878;28;45377;-84
2021/08/05 01:15:21;;;;;;;;;11.00;8.33;;;;;19.65;59.80;100754.72;4937672;28;45272;-82
2021/08/05 01:17:49;;;;;;;;;6.67;6.33;;;;;19.72;60.14;100768.72;4947240;28;45275;-87
2021/08/05 01:20:21;;;;;;;;;9.00;8.00;;;;;19.62;60.00;100757.53;4964598;28;47321;-87
2021/08/05 01:23:05;;;;;;;;;7.67;7.67;;;;;19.68;60.05;100770.66;4948077;28;45342;-87
2021/08/05 01:25:42;;;;;;;;;11.00;10.00;;;;;19.66;60.47;100763.59;4943221;28;45276;-87
2021/08/05 01:28:10;;;;;;;;;12.00;10.67;;;;;19.56;60.28;100750.59;4965315;28;45296;-84
2021/08/05 01:30:37;;;;;;;;;9.33;7.67;;;;;19.54;60.58;100754.25;4947109;28;46357;-83
2021/08/05 01:33:04;;;;;;;;;8.00;8.00;;;;;19.59;60.63;100765.63;4964149;28;45362;-84
2021/08/05 01:35:30;;;;;;;;;6.25;6.25;;;;;19.52;60.86;100756.16;4947881;28;45235;-85
2021/08/05 01:37:56;;;;;;;;;11.00;10.25;;;;;19.57;60.46;100772.84;4947738;28;45747;-85
2021/08/05 01:40:23;;;;;;;;;9.00;9.00;;;;;19.57;60.76;100760.38;4963842;28;47042;-85
2021/08/05 01:42:49;;;;;;;;;8.00;7.67;;;;;19.61;60.52;100766.44;4949029;28;45238;-88
2021/08/05 01:45:16;;;;;;;;;9.00;9.00;;;;;19.55;60.86;100740.00;4948499;28;45396;-87
2021/08/05 01:47:42;;;;;;;;;12.67;9.67;;;;;19.56;60.83;100739.91;4967151;28;45477;-87
2021/08/05 01:50:11;;;;;;;;;11.67;10.67;;;;;19.56;60.77;100739.91;4948708;28;48095;-84
2021/08/05 01:52:37;;;;;;;;;9.00;9.00;;;;;19.53;60.88;100733.84;4963521;28;45299;-84
2021/08/05 01:55:07;;;;;;;;;8.33;8.33;;;;;19.53;60.81;100731.16;4963663;28;45496;-84
2021/08/05 01:57:32;;;;;;;;;12.00;11.25;;;;;19.61;60.97;100750.41;4963395;28;45592;-84
2021/08/05 01:59:58;;;;;;;;;13.00;10.00;;;;;19.58;60.89;100738.06;4944899;28;47164;-85
2021/08/05 02:02:24;;;;;;;;;12.75;11.75;;;;;19.62;61.01;100741.50;4963526;28;45378;-86
2021/08/05 02:04:56;;;;;;;;;13.50;10.75;;;;;19.65;60.49;100733.34;4961974;28;45464;-85
2021/08/05 02:07:33;;;;;;;;;10.50;9.75;;;;;19.61;61.00;100729.03;4955481;28;45348;-85
2021/08/05 02:10:13;;;;;;;;;10.50;10.00;;;;;19.60;60.72;100730.00;4957171;28;45540;-85
2021/08/05 02:13:18;;;;;;;;;12.75;11.75;;;;;19.57;60.75;100714.09;4944558;28;45274;-85
2021/08/05 02:15:52;;;;;;;;;13.75;11.00;;;;;19.61;60.73;100724.56;4915904;28;45192;-85
2021/08/05 02:18:20;;;;;;;;;13.75;12.25;;;;;19.56;60.69;100713.22;4963884;28;45222;-86
2021/08/05 02:20:47;;;;;;;;;11.75;11.75;;;;;19.66;60.75;100732.44;4944447;28;47226;-85
2021/08/05 02:23:15;;;;;;;;;12.00;12.00;;;;;19.67;60.48;100725.28;4962888;28;45650;-85
2021/08/05 02:25:41;;;;;;;;;13.75;13.25;;;;;19.67;60.62;100726.16;4956400;28;45265;-86
2021/08/05 02:28:08;;;;;;;;;13.25;12.00;;;;;19.60;60.98;100719.31;4958103;28;45204;-84
2021/08/05 02:30:36;;;;;;;;;11.25;10.25;;;;;19.58;60.59;100710.47;4962617;28;48274;-85
2021/08/05 02:33:03;;;;;;;;;13.25;13.00;;;;;19.58;60.87;100723.84;4946668;28;45424;-86
2021/08/05 02:35:33;;;;;;;;;10.75;10.50;;;;;19.59;60.61;100718.44;4942820;28;45426;-85
2021/08/05 02:37:59;;;;;;;;;17.25;16.25;;;;;19.59;60.98;100712.22;4944158;28;45283;-85
2021/08/05 02:40:24;;;;;;;;;13.25;12.25;;;;;19.60;60.64;100713.97;4955649;28;46107;-84
2021/08/05 02:42:50;;;;;;;;;11.75;11.75;;;;;19.54;61.27;100704.41;4943857;28;45451;-85
2021/08/05 02:45:16;;;;;;;;;15.50;12.00;;;;;19.56;60.89;100710.53;4964082;28;45441;-85
2021/08/05 02:47:42;;;;;;;;;11.25;10.25;;;;;19.57;60.96;100714.09;4964101;28;45317;-85
2021/08/05 02:50:09;;;;;;;;;14.25;12.00;;;;;19.50;61.13;100702.78;4952723;28;47052;-85
2021/08/05 02:52:35;;;;;;;;;12.75;12.75;;;;;19.49;61.34;100701.06;4955391;28;45237;-84
2021/08/05 02:55:05;;;;;;;;;12.75;11.50;;;;;19.48;60.98;100696.63;4963106;28;45189;-84
2021/08/05 02:57:31;;;;;;;;;14.25;14.25;;;;;19.47;61.39;100702.91;4957474;28;45311;-85
2021/08/05 02:59:58;;;;;;;;;13.75;13.75;;;;;19.44;61.42;100704.84;4959505;28;45486;-84
2021/08/05 03:02:23;;;;;;;;;13.25;11.25;;;;;19.42;61.46;100699.56;4945041;28;45384;-84
2021/08/05 03:04:49;;;;;;;;;16.00;14.25;;;;;19.41;61.15;100694.31;4962655;28;45437;-84
2021/08/05 03:07:15;;;;;;;;;13.50;11.75;;;;;19.46;61.68;100702.97;4944499;28;45488;-83
2021/08/05 03:09:40;;;;;;;;;12.75;11.50;;;;;19.49;61.42;100710.88;4961765;28;46262;-84
2021/08/05 03:12:06;;;;;;;;;11.00;11.00;;;;;19.48;61.50;100704.66;4950599;28;45278;-84
2021/08/05 03:14:32;;;;;;;;;16.50;15.00;;;;;19.46;61.57;100706.53;4954898;28;45260;-84
2021/08/05 03:16:58;;;;;;;;;11.75;10.00;;;;;19.38;61.24;100692.63;4959818;28;45474;-84
2021/08/05 03:19:24;;;;;;;;;12.75;11.25;;;;;19.43;61.17;100695.09;4943991;28;46075;-84
2021/08/05 03:21:49;;;;;;;;;15.00;12.25;;;;;19.41;61.17;100694.31;4944563;28;45553;-83
2021/08/05 03:24:14;;;;;;;;;13.50;12.00;;;;;19.35;60.89;100688.28;4940301;28;45547;-84
2021/08/05 03:26:40;;;;;;;;;13.50;10.75;;;;;19.34;61.24;100701.69;4945315;28;45663;-84
2021/08/05 03:29:08;;;;;;;;;12.00;12.00;;;;;19.29;61.09;100696.53;4967748;28;48251;-83
2021/08/05 03:31:33;;;;;;;;;10.75;10.00;;;;;19.27;61.27;100681.50;4940805;28;45376;-84
2021/08/05 03:33:59;;;;;;;;;11.75;11.75;;;;;19.23;61.24;100669.22;4952551;28;45355;-84
2021/08/05 03:36:24;;;;;;;;;13.00;11.75;;;;;19.24;61.26;100670.94;4961824;28;45604;-84
2021/08/05 03:38:50;;;;;;;;;11.25;11.25;;;;;19.22;60.97;100673.69;4959193;28;45392;-84
2021/08/05 03:41:17;;;;;;;;;15.00;12.00;;;;;19.22;61.50;100676.38;4960823;28;45348;-85
2021/08/05 03:43:43;;;;;;;;;10.25;10.25;;;;;19.20;61.08;100669.34;4957999;28;45176;-85
2021/08/05 03:46:08;;;;;;;;;10.25;9.25;;;;;19.23;61.06;100682.56;4961154;28;45435;-85
2021/08/05 03:48:34;;;;;;;;;14.25;13.00;;;;;19.18;61.63;100664.94;4945442;28;47155;-85
2021/08/05 03:50:59;;;;;;;;;13.75;13.00;;;;;19.18;61.48;100662.25;4945046;28;45373;-85
2021/08/05 03:53:25;;;;;;;;;10.50;10.00;;;;;19.23;61.42;100671.91;4957376;28;45501;-85
2021/08/05 03:55:51;;;;;;;;;11.25;11.25;;;;;19.21;61.71;100666.59;4960610;28;45489;-83
2021/08/05 03:58:18;;;;;;;;;14.25;12.00;;;;;19.18;61.73;100661.41;4956863;28;45426;-84
2021/08/05 04:00:43;;;;;;;;;13.25;13.25;;;;;19.25;61.65;100670.91;4957707;28;45828;-83
2021/08/05 04:03:09;;;;;;;;;16.25;13.75;;;;;19.20;62.03;100656.88;4945001;28;45510;-86
2021/08/05 04:05:34;;;;;;;;;14.25;14.00;;;;;19.21;61.84;100660.41;4963238;28;45249;-85
2021/08/05 04:08:00;;;;;;;;;13.75;13.75;;;;;19.18;61.80;100656.06;4945823;28;46959;-85
2021/08/05 04:10:25;;;;;;;;;15.50;14.50;;;;;19.18;61.98;100654.25;4963130;28;45259;-85
2021/08/05 04:12:50;;;;;;;;;15.75;14.00;;;;;19.20;61.79;100662.22;4925541;28;45433;-85
2021/08/05 04:15:16;;;;;;;;;16.25;15.50;;;;;19.25;62.03;100672.72;4957917;28;45360;-86
2021/08/05 04:17:41;;;;;;;;;17.00;15.50;;;;;19.15;62.04;100666.88;4958516;28;45226;-84
2021/08/05 04:20:08;;;;;;;;;16.00;13.50;;;;;19.20;62.23;100670.22;4948204;28;45606;-85
2021/08/05 04:22:36;;;;;;;;;14.00;14.00;;;;;19.21;61.59;100666.59;4963538;28;45239;-85
2021/08/05 04:25:08;;;;;;;;;14.00;12.50;;;;;19.24;61.50;100666.47;4951957;28;45489;-84
2021/08/05 04:27:36;;;;;;;;;14.25;12.75;;;;;19.21;61.63;100655.06;4944016;28;47476;-84
2021/08/05 04:30:02;;;;;;;;;15.00;13.00;;;;;19.25;61.74;100665.56;4963623;28;45287;-84
2021/08/05 04:32:27;;;;;;;;;13.00;11.00;;;;;19.27;61.81;100673.50;4959772;28;45528;-85
2021/08/05 04:34:53;;;;;;;;;15.50;14.50;;;;;19.25;61.47;100665.56;4961077;28;45455;-85
2021/08/05 04:37:19;;;;;;;;;12.75;12.50;;;;;19.31;61.34;100669.78;4963755;28;46022;-84
2021/08/05 04:39:45;;;;;;;;;12.25;12.00;;;;;19.33;61.17;100668.78;4962173;28;45318;-84
2021/08/05 04:42:10;;;;;;;;;13.75;13.75;;;;;19.32;61.51;100656.34;4947770;28;45279;-85
2021/08/05 04:44:36;;;;;;;;;13.75;12.75;;;;;19.30;61.20;100652.00;4960327;28;45373;-84
2021/08/05 04:47:01;;;;;;;;;15.75;14.00;;;;;19.32;61.27;100660.81;4964894;28;45498;-84
2021/08/05 04:49:27;;;;;;;;;12.50;12.50;;;;;19.36;61.31;100673.13;4959223;28;45402;-84
2021/08/05 04:51:53;;;;;;;;;14.50;14.50;;;;;19.30;61.01;100670.69;4960484;28;45232;-84
2021/08/05 04:54:22;;;;;;;;;18.75;16.75;;;;;19.30;61.66;100678.69;4964802;28;45220;-84
2021/08/05 04:56:48;;;;;;;;;13.50;13.00;;;;;19.26;61.54;100687.78;4961785;28;45318;-84
2021/08/05 04:59:13;;;;;;;;;13.00;12.50;;;;;19.16;61.92;100680.16;4966926;28;45512;-84
2021/08/05 05:01:39;;;;;;;;;13.75;13.50;;;;;19.13;62.27;100687.41;4964560;28;45329;-84
2021/08/05 05:04:04;;;;;;;;;13.00;12.00;;;;;19.16;62.44;100697.94;4964155;28;45256;-84
2021/08/05 05:06:30;;;;;;;;;13.00;11.75;;;;;19.13;62.44;100701.59;4959726;28;46352;-84
2021/08/05 05:08:56;;;;;;;;;12.50;12.50;;;;;19.00;62.54;100683.47;4961356;28;45391;-85
2021/08/05 05:11:22;;;;;;;;;13.75;12.50;;;;;19.02;62.63;100690.50;4959676;28;45335;-84
2021/08/05 05:13:48;;;;;;;;;12.00;12.00;;;;;19.00;62.49;100683.47;4937812;28;45473;-85
2021/08/05 05:16:14;;;;;;;;;13.75;12.50;;;;;18.99;62.64;100679.94;4958184;28;46314;-84
2021/08/05 05:18:39;;;;;;;;;12.25;12.00;;;;;19.04;62.48;100687.78;4960753;28;45546;-85
2021/08/05 05:21:05;;;;;;;;;13.50;13.00;;;;;19.00;62.80;100679.00;4946063;28;45482;-82
2021/08/05 05:23:31;;;;;;;;;13.25;12.75;;;;;19.01;62.33;100675.44;4963904;28;45703;-84
2021/08/05 05:25:57;;;;;;;;;12.50;12.50;;;;;19.05;62.61;100690.38;4946234;28;47575;-84
2021/08/05 05:28:22;;;;;;;;;12.75;12.75;;;;;19.05;62.43;100685.03;4963799;28;45452;-82
2021/08/05 05:30:48;;;;;;;;;13.50;13.50;;;;;18.97;62.33;100667.59;4965319;28;45361;-83
2021/08/05 05:33:13;;;;;;;;;13.00;13.00;;;;;19.05;62.26;100678.84;4939231;28;45317;-83
2021/08/05 05:35:39;;;;;;;;;10.75;10.75;;;;;19.00;62.30;100687.00;4949402;28;46918;-83
2021/08/05 05:38:06;;;;;;;;;16.00;15.00;;;;;18.98;62.80;100680.00;4980363;28;45196;-83
2021/08/05 05:40:32;;;;;;;;;17.50;13.25;;;;;19.01;62.87;100685.25;4963198;28;44802;-82
2021/08/05 05:43:00;;;;;;;;;11.50;10.50;;;;;19.03;62.79;100702.94;4977103;28;44681;-84
2021/08/05 05:45:26;;;;;;;;;10.50;9.75;;;;;19.01;62.97;100688.78;4957415;28;46505;-84
2021/08/05 05:47:51;;;;;;;;;15.00;12.75;;;;;18.97;62.74;100680.94;4963550;28;44880;-84
2021/08/05 05:50:19;;;;;;;;;14.50;14.50;;;;;19.06;62.92;100701.91;4958634;28;45373;-84
2021/08/05 05:52:45;;;;;;;;;14.25;14.25;;;;;19.02;62.75;100701.16;4943039;28;45478;-84
2021/08/05 05:55:11;;;;;;;;;17.75;16.75;;;;;18.99;63.29;100698.63;4962839;28;47456;-84
2021/08/05 05:57:37;;;;;;;;;12.25;12.25;;;;;18.92;62.97;100687.34;4959073;28;45750;-84
2021/08/05 06:00:04;;;;;;;;;15.00;14.25;;;;;19.03;63.09;100702.03;4962557;28;45556;-84
2021/08/05 06:02:29;;;;;;;;;13.75;12.75;;;;;18.92;63.29;100691.78;4963367;28;45503;-86
2021/08/05 06:04:55;;;;;;;;;14.25;14.00;;;;;18.99;63.27;100705.78;4966663;28;45475;-86
2021/08/05 06:07:20;;;;;;;;;16.00;16.00;;;;;18.91;63.07;100695.41;4964005;28;45496;-87
2021/08/05 06:09:46;;;;;;;;;10.25;10.25;;;;;18.90;63.15;100704.34;4964420;28;45299;-86
2021/08/05 06:12:11;;;;;;;;;15.25;15.25;;;;;18.98;62.96;100717.34;4953157;28;45485;-87
2021/08/05 06:14:37;;;;;;;;;14.00;12.75;;;;;18.91;63.17;100706.94;4944452;28;47063;-87
2021/08/05 06:17:02;;;;;;;;;14.00;12.50;;;;;18.97;63.28;100713.81;4963327;28;45448;-86
2021/08/05 06:19:28;;;;;;;;;13.50;13.00;;;;;18.92;63.22;100711.34;4944548;28;45505;-87
2021/08/05 06:21:53;;;;;;;;;15.25;13.00;;;;;18.95;63.15;100710.34;4961593;28;45486;-87
2021/08/05 06:24:19;;;;;;;;;14.75;13.75;;;;;19.02;63.48;100724.31;4957763;28;45832;-87
2021/08/05 06:26:45;;;;;;;;;14.25;12.00;;;;;18.94;62.79;100717.47;4964228;28;45413;-85
2021/08/05 06:29:11;;;;;;;;;13.00;10.50;;;;;19.03;62.84;100726.06;4967416;28;45167;-85
2021/08/05 06:31:37;;;;;;;;;9.75;8.00;;;;;19.05;62.71;100716.19;4977403;28;44640;-87
2021/08/05 06:34:21;;;;;;;;;11.25;11.25;;;;;19.05;62.51;100710.84;4953484;28;47342;-88
2021/08/05 06:36:46;;;;;;;;;10.25;10.25;;;;;19.01;62.54;100693.25;4964700;28;45244;-88
2021/08/05 06:39:14;;;;;;;;;12.75;11.25;;;;;19.12;62.50;100704.34;4946174;28;45423;-87
2021/08/05 06:45:16;;;;;;;;;14.25;13.75;;;;;19.23;62.45;100698.59;4932880;28;45627;-87
2021/08/05 06:47:52;;;;;;;;;12.75;12.00;;;;;19.35;61.75;100714.97;4960644;28;45505;-87
2021/08/05 06:50:18;;;;;;;;;11.75;11.00;;;;;19.33;61.93;100694.63;4946011;28;45438;-86
2021/08/05 06:52:51;;;;;;;;;15.00;13.50;;;;;19.44;61.50;100704.84;4945056;28;45562;-86
2021/08/05 06:55:16;;;;;;;;;11.50;11.50;;;;;19.38;61.24;100690.81;4961575;28;48342;-88
2021/08/05 06:57:42;;;;;;;;;12.25;12.25;;;;;19.49;61.14;100701.06;4945186;28;45359;-86
2021/08/05 07:00:08;;;;;;;;;10.50;10.50;;;;;19.49;61.09;100703.72;4958287;28;45398;-88
2021/08/05 07:02:33;;;;;;;;;15.75;14.25;;;;;19.54;60.86;100712.44;4958735;28;45449;-85
2021/08/05 07:05:03;;;;;;;;;13.00;11.50;;;;;19.58;61.03;100715.81;4943483;28;46941;-89
2021/08/05 07:07:29;;;;;;;;;15.25;13.75;;;;;19.57;61.13;100706.94;4937303;28;45239;-87
2021/08/05 07:09:56;;;;;;;;;15.00;14.00;;;;;19.60;60.70;100706.81;4956536;28;45449;-88
2021/08/05 07:12:21;;;;;;;;;15.00;13.75;;;;;19.64;61.16;100696.00;4962735;28;45592;-85
2021/08/05 07:14:47;;;;;;;;;14.75;14.25;;;;;19.72;60.75;100707.25;4958374;28;46220;-88
2021/08/05 07:17:14;;;;;;;;;13.00;12.25;;;;;19.79;60.86;100701.59;4957649;28;45541;-84
2021/08/05 07:19:40;;;;;;;;;12.00;12.00;;;;;19.88;60.22;100702.13;4952270;28;45342;-87
2021/08/05 07:22:05;;;;;;;;;13.00;12.75;;;;;20.01;60.33;100708.69;4960731;28;45246;-88
2021/08/05 07:24:31;;;;;;;;;15.50;12.50;;;;;20.03;60.24;100699.66;4960978;28;46864;-87
2021/08/05 07:26:56;;;;;;;;;14.00;13.50;;;;;20.11;59.78;100699.34;4962330;28;45269;-89
2021/08/05 07:29:22;;;;;;;;;16.75;14.50;;;;;20.19;59.80;100699.00;4958082;28;45260;-88
2021/08/05 07:31:47;;;;;;;;;14.00;13.25;;;;;20.34;60.01;100713.47;4959646;28;45193;-88
2021/08/05 07:34:13;;;;;;;;;14.00;13.50;;;;;20.41;59.30;100707.78;4937211;28;47001;-89
2021/08/05 07:36:38;;;;;;;;;16.25;15.25;;;;;20.47;59.38;100706.63;4941274;28;45268;-88
2021/08/05 07:39:33;;;;;;;;;16.50;15.50;;;;;20.56;59.30;100708.09;4949813;28;45220;-87
2021/08/05 07:42:06;;;;;;;;;18.50;14.75;;;;;20.62;59.01;100705.13;4955587;28;45992;-84
2021/08/05 07:44:31;;;;;;;;;15.25;13.50;;;;;20.77;59.21;100706.19;4941315;28;47160;-79
2021/08/05 07:46:57;;;;;;;;;16.25;14.00;;;;;20.84;58.33;100694.28;4938872;28;45268;-78
2021/08/05 07:49:23;;;;;;;;;12.25;10.00;;;;;20.93;58.11;100696.53;4951769;28;45229;-79
2021/08/05 07:51:48;;;;;;;;;14.00;13.00;;;;;21.00;57.62;100697.94;4956711;28;45327;-81
2021/08/05 07:54:14;;;;;;;;;11.50;11.50;;;;;21.15;58.13;100704.41;4942272;28;48188;-79
2021/08/05 07:56:39;;;;;;;;;14.25;12.25;;;;;21.18;57.53;100698.03;4960377;28;45361;-80
2021/08/05 07:59:04;;;;;;;;;12.50;11.50;;;;;21.27;57.21;100705.59;4942604;28;45543;-81
2021/08/05 08:01:30;;;;;;;;;13.50;13.50;;;;;21.28;57.03;100705.53;4941927;28;45470;-81
2021/08/05 08:03:55;;;;;;;;;15.50;11.50;;;;;21.34;56.72;100710.56;4942765;28;46084;-83
2021/08/05 08:06:21;;;;;;;;;14.50;13.25;;;;;21.33;56.54;100702.59;4955914;28;45322;-81
2021/08/05 08:08:48;;;;;;;;;12.00;12.00;;;;;21.35;56.79;100693.56;4957526;28;45788;-79
2021/08/05 08:11:22;;;;;;;;;16.00;13.75;;;;;21.44;56.68;100688.72;4931046;28;45507;-82
2021/08/05 08:13:48;;;;;;;;;13.33;13.33;;;;;21.56;56.55;100690.78;4933837;28;47431;-80
2021/08/05 08:16:13;;;;;;;;;17.75;15.75;;;;;21.59;56.24;100687.94;4953562;28;45489;-81
2021/08/05 08:18:39;;;;;;;;;13.75;12.75;;;;;21.61;56.01;100675.34;4934682;28;45362;-79
2021/08/05 08:21:04;;;;;;;;;14.00;12.50;;;;;21.68;56.28;100666.06;4952835;28;45499;-81
2021/08/05 08:23:30;;;;;;;;;14.00;14.00;;;;;21.79;56.36;100674.41;4949422;28;45475;-80
2021/08/05 08:25:55;;;;;;;;;13.50;12.75;;;;;21.93;55.67;100672.84;4948532;28;45266;-80
2021/08/05 08:28:21;;;;;;;;;11.50;11.50;;;;;21.92;56.01;100661.25;4960335;28;45627;-79
2021/08/05 08:30:46;;;;;;;;;12.25;11.75;;;;;22.05;55.39;100660.59;4958789;28;45354;-78
2021/08/05 08:33:11;;;;;;;;;12.50;11.50;;;;;22.17;55.51;100660.81;4945425;28;46082;-79
2021/08/05 08:35:37;;;;;;;;;14.00;14.00;;;;;22.24;54.54;100656.03;4953762;28;45505;-79
2021/08/05 08:38:03;;;;;;;;;16.50;14.50;;;;;22.28;54.30;100649.53;4953328;28;45484;-79
2021/08/05 08:40:32;;;;;;;;;12.25;12.00;;;;;22.38;54.09;100652.59;4927753;28;45740;-81
2021/08/05 08:42:58;;;;;;;;;12.00;11.50;;;;;22.50;54.15;100656.41;4935793;28;47291;-80
2021/08/05 08:45:24;;;;;;;;;12.67;10.00;;;;;22.55;53.97;100662.41;4954257;28;45483;-81
2021/08/05 08:47:54;;;;;;;;;13.75;12.00;;;;;22.56;53.58;100654.28;4937337;28;45582;-80
2021/08/05 08:50:29;;;;;;;;;13.00;12.25;;;;;22.58;52.86;100651.50;4941870;28;45973;-80
2021/08/05 08:53:01;;;;;;;;;10.75;9.50;;;;;22.60;52.78;100653.13;4957084;28;47562;-79
2021/08/05 08:55:28;;;;;;;;;11.75;10.75;;;;;22.64;52.54;100648.47;4956282;28;45438;-78
2021/08/05 08:57:57;;;;;;;;;9.25;8.25;;;;;22.67;52.24;100649.19;4956956;28;45382;-78
2021/08/05 09:00:23;;;;;;;;;13.00;10.50;;;;;22.79;52.26;100650.28;4942377;28;45778;-78
2021/08/05 09:02:48;;;;;;;;;9.75;8.25;;;;;22.88;51.78;100655.16;4937934;28;48023;-81
2021/08/05 09:05:15;;;;;;;;;13.00;12.00;;;;;22.98;51.78;100657.34;4951232;28;45523;-79
2021/08/05 09:07:43;;;;;;;;;12.00;10.50;;;;;23.07;51.96;100655.00;4957481;28;45604;-76
2021/08/05 09:10:09;;;;;;;;;10.25;10.25;;;;;23.21;50.88;100656.03;4940461;28;45613;-77
2021/08/05 09:12:35;;;;;;;;;11.25;11.25;;;;;23.22;50.76;100649.69;4941701;28;46200;-78
2021/08/05 09:15:04;;;;;;;;;11.00;10.00;;;;;23.30;50.73;100645.59;4937587;28;45386;-80
2021/08/05 09:17:31;;;;;;;;;10.00;10.00;;;;;23.52;50.18;100663.16;4946106;28;45539;-79
2021/08/05 09:20:02;;;;;;;;;11.00;10.00;;;;;23.66;49.03;100659.66;4952120;28;45492;-79
2021/08/05 09:22:46;;;;;;;;;9.33;9.33;;;;;23.76;49.17;100667.13;4938650;28;46732;-79
2021/08/05 09:25:17;;;;;;;;;10.00;10.00;;;;;23.94;49.10;100654.38;4957329;28;45566;-80
2021/08/05 09:27:44;;;;;;;;;9.33;9.33;;;;;24.04;48.34;100646.63;4944470;28;45343;-80
2021/08/05 09:30:09;;;;;;;;;11.00;9.33;;;;;24.12;48.32;100647.00;4947667;28;45881;-80
2021/08/05 09:32:35;;;;;;;;;10.00;8.00;;;;;24.18;47.98;100645.75;4950530;28;45590;-79
2021/08/05 09:35:09;;;;;;;;;8.33;8.33;;;;;24.19;48.04;100644.78;4954371;28;46000;-79
2021/08/05 09:37:40;;;;;;;;;10.00;9.00;;;;;24.23;48.16;100653.56;4949054;28;45324;-77
2021/08/05 09:40:14;;;;;;;;;12.00;11.00;;;;;24.20;46.56;100649.22;4954227;28;45322;-78
2021/08/05 09:42:39;;;;;;;;;9.00;8.67;;;;;24.17;47.16;100658.34;4943221;28;46294;-78
2021/08/05 09:45:09;;;;;;;;;13.33;9.67;;;;;24.16;46.44;100645.88;4960463;28;45296;-78
2021/08/05 09:47:44;;;;;;;;;9.67;7.67;;;;;24.24;46.89;100644.50;4960960;28;45612;-78
2021/08/05 09:50:11;;;;;;;;;8.67;8.67;;;;;24.35;46.69;100640.19;4939287;28;45478;-79
2021/08/05 09:52:37;;;;;;;;;5.67;5.67;;;;;24.39;46.20;100635.47;4943024;28;47417;-80
2021/08/05 09:55:08;;;;;;;;;6.00;6.00;;;;;24.35;46.18;100639.31;4960709;28;45600;-79
2021/08/05 09:57:36;;;;;;;;;7.67;7.00;;;;;24.30;46.09;100631.56;4943225;28;45453;-80
2021/08/05 10:00:08;;;;;;;;;7.67;7.67;;;;;24.28;46.21;100641.53;4926128;28;45718;-81
2021/08/05 10:02:45;;;;;;;;;7.67;7.67;;;;;24.18;46.06;100632.31;4960055;28;46248;-78
2021/08/05 10:05:19;;;;;;;;;7.33;7.33;;;;;24.06;46.32;100627.69;4941904;28;45617;-80
2021/08/05 10:07:49;;;;;;;;;6.67;6.67;;;;;23.98;45.97;100625.50;4956825;28;45598;-80
2021/08/05 10:10:17;;;;;;;;;6.00;5.67;;;;;23.96;45.51;100611.25;4934583;28;45560;-80
2021/08/05 10:12:52;;;;;;;;;8.00;8.00;;;;;23.95;46.26;100620.28;4946255;28;45344;-82
2021/08/05 10:15:19;;;;;;;;;5.00;4.67;;;;;24.01;46.46;100622.59;4931880;28;45928;-85
2021/08/05 10:17:48;;;;;;;;;5.00;5.00;;;;;24.08;46.70;100618.56;4947704;28;45401;-84
2021/08/05 10:20:13;;;;;;;;;5.00;5.00;;;;;24.18;45.88;100602.72;4953964;28;45545;-85
2021/08/05 10:22:41;;;;;;;;;5.00;5.00;;;;;24.36;46.49;100611.47;4930591;28;45556;-81
2021/08/05 10:25:19;;;;;;;;;5.67;5.67;;;;;24.53;45.45;100603.19;4951839;28;45464;-84
2021/08/05 10:27:46;;;;;;;;;7.00;4.00;;;;;24.73;44.12;100596.53;4949604;28;45523;-82
2021/08/05 10:30:17;;;;;;;;;4.67;4.00;;;;;24.88;44.21;100586.56;4954860;28;45472;-84
2021/08/05 10:32:44;;;;;;;;;3.33;3.00;;;;;25.04;43.76;100583.72;4943841;28;45507;-83
2021/08/05 10:35:15;;;;;;;;;5.33;5.33;;;;;25.11;43.50;100593.13;4935558;28;45570;-84
2021/08/05 10:37:41;;;;;;;;;4.00;4.00;;;;;25.06;43.25;100592.56;4945078;28;45359;-80
2021/08/05 10:40:15;;;;;;;;;4.00;4.00;;;;;24.99;43.24;100588.53;4935035;28;45444;-83
2021/08/05 10:43:06;;;;;;;;;4.00;4.00;;;;;24.96;43.12;100586.06;4954436;28;47301;-84
2021/08/05 10:45:43;;;;;;;;;3.00;3.00;;;;;24.98;42.77;100576.91;4953954;28;45584;-83
2021/08/05 10:48:15;;;;;;;;;4.00;4.00;;;;;25.01;42.88;100583.94;4932053;28;45697;-83
2021/08/05 10:50:56;;;;;;;;;;;;;;;;;;;;;
2021/08/05 10:53:31;;;;;;;;;4.00;4.00;;;;;24.98;42.82;100578.75;4953542;28;74686;-85
2021/08/05 10:56:16;;;;;;;;;4.00;4.00;;;;;25.01;42.63;100575.84;4949342;28;45770;-81
2021/08/05 10:59:05;;;;;;;;;3.00;3.00;;;;;25.13;43.01;100566.06;4936648;28;45417;-83
2021/08/05 11:01:54;;;;;;;;;4.00;4.00;;;;;25.29;41.93;100564.13;4954715;28;45447;-84
2021/08/05 11:04:34;;;;;;;;;2.67;2.67;;;;;25.53;40.47;100567.81;4952304;28;45511;-85
2021/08/05 11:07:26;;;;;;;;;3.00;3.00;;;;;25.73;40.49;100568.25;4952600;28;45581;-84
2021/08/05 11:10:14;;;;;;;;;5.33;5.33;;;;;25.88;39.40;100560.97;4928442;28;45442;-86
2021/08/05 11:12:44;;;;;;;;;2.33;2.33;;;;;26.00;39.49;100554.69;4939245;28;45947;-86
2021/08/05 11:15:22;;;;;;;;;4.33;3.00;;;;;26.16;39.79;100557.16;4938017;28;46390;-84
2021/08/05 11:18:09;;;;;;;;;2.00;2.00;;;;;26.23;39.94;100544.94;4945890;28;45351;-84
2021/08/05 11:20:39;;;;;;;;;4.33;3.00;;;;;26.28;40.22;100536.50;4944132;28;45355;-83
2021/08/05 11:23:06;;;;;;;;;3.67;3.67;;;;;26.32;39.54;100544.25;4942557;28;45315;-84
2021/08/05 11:25:50;;;;;;;;;4.00;2.67;;;;;26.29;38.51;100527.44;4946143;28;46576;-81